Impacts TAF Board
For situational awareness. Not to be used for flight planning purposes.
IDs:

KPNS - Pensacola Intl, FL, US

Issued at 0521 UTC 24 Jan 2019
Updated at 0642 UTC 24 Jan 2019
Potential Impact None Slight Moderate High
Time<<24/19Z 24/20Z 24/21Z 24/22Z 24/23Z 25/00Z 25/01Z 25/02Z 25/03Z 25/04Z 25/05Z 25/06Z 25/07Z>>
Type PRVL PRVL PRVL PRVL PRVL PRVL PRVL PRVL PRVL PRVL PRVL
VIS >6 >6 >6 >6 >6 >6 >6 >6 >6 >6 >6
CIG -- -- -- -- -- -- -- -- -- -- --
Cover SKC SKC SKC SKC SKC SKC SKC SKC SKC SKC SKC
FltCat VFR VFR VFR VFR VFR VFR VFR VFR VFR VFR VFR
WX -- -- -- -- -- -- -- -- -- -- --
WDir 330 330 320 320 320 320 320 320 320 320 320
WSpd 12 12 6 6 6 6 6 6 6 6 6
WGst 19 19 -- -- -- -- -- -- -- -- --
Raw TAF
KPNS 240521Z 2406/2506 VRB06KT 6SM -RA BR BKN010 OVC030
  TEMPO 2406/2408 6SM BR BKN005
  FM240800 33010G15KT P6SM OVC009
  FM241200 34011KT P6SM SCT020
  FM241600 33012G19KT P6SM SKC
  FM242100 32006KT P6SM SKC


METAR Board
Radar Display
Forecast Discussion
For situational awareness. Not to be used for flight planning purposes.